Time;durP1;ratioP1;P1;durP2;ratioP2;P2;SDS_P1;SDS_P2;PMS_P1;PMS_P2;Temp;Humidity;BMP_temperature;BMP_pressure;BME280_temperature;BME280_humidity;BME280_pressure;Samples;Min_cycle;Max_cycle;Signal;HPM_P1;HPM_P2
2024/04/20 00:01:52;;;;;;;11.37;2.67;;;;;;;;;;5471529;26;20232;-69
2024/04/20 00:04:17;;;;;;;19.03;2.57;;;;;;;;;;5470933;26;20273;-69
2024/04/20 00:06:44;;;;;;;11.53;2.60;;;;;;;;;;5467260;26;20233;-69
2024/04/20 00:09:09;;;;;;;12.63;2.50;;;;;;;;;;5473043;26;20747;-69
2024/04/20 00:11:34;;;;;;;18.60;2.60;;;;;;;;;;5469795;26;20229;-69
2024/04/20 00:14:00;;;;;;;27.87;3.27;;;;;;;;;;5469076;26;20345;-69
2024/04/20 00:16:25;;;;;;;16.20;2.37;;;;;;;;;;5471227;26;20232;-69
2024/04/20 00:18:50;;;;;;;26.07;2.50;;;;;;;;;;5472235;26;20229;-69
2024/04/20 00:21:15;;;;;;;8.50;2.40;;;;;;;;;;5472722;26;20237;-69
2024/04/20 00:23:41;;;;;;;15.53;2.83;;;;;;;;;;5467472;26;20822;-69
2024/04/20 00:26:07;;;;;;;12.13;3.10;;;;;;;;;;5471146;26;20244;-69
2024/04/20 00:28:32;;;;;;;14.30;2.27;;;;;;;;;;5467300;26;20688;-69
2024/04/20 00:31:01;;;;;;;10.07;2.77;;;;;;;;;;5470658;26;20287;-69
2024/04/20 00:33:27;;;;;;;14.27;2.50;;;;;;;;;;5471804;26;20292;-68
2024/04/20 00:35:52;;;;;;;11.57;2.60;;;;;;;;;;5465006;26;20302;-69
2024/04/20 00:38:18;;;;;;;9.43;3.10;;;;;;;;;;5469930;26;20244;-68
2024/04/20 00:40:43;;;;;;;11.80;2.17;;;;;;;;;;5434992;26;20275;-69
2024/04/20 00:43:14;;;;;;;11.10;2.80;;;;;;;;;;5470627;26;20228;-68
2024/04/20 00:45:40;;;;;;;9.37;2.17;;;;;;;;;;5465205;26;20275;-68
2024/04/20 00:48:05;;;;;;;24.97;3.03;;;;;;;;;;5463701;26;20238;-69
2024/04/20 00:50:31;;;;;;;14.93;3.03;;;;;;;;;;5472363;26;20275;-68
2024/04/20 00:52:56;;;;;;;9.30;2.93;;;;;;;;;;5457288;26;20684;-69
2024/04/20 00:55:22;;;;;;;8.80;2.67;;;;;;;;;;5471580;26;20263;-69
2024/04/20 00:57:47;;;;;;;16.67;2.40;;;;;;;;;;5477670;26;20248;-68
2024/04/20 01:00:12;;;;;;;7.07;2.20;;;;;;;;;;5473575;26;20236;-68
2024/04/20 01:02:37;;;;;;;13.10;2.80;;;;;;;;;;5465069;26;20305;-69
2024/04/20 01:05:03;;;;;;;10.17;2.50;;;;;;;;;;5471591;26;20236;-69
2024/04/20 01:07:28;;;;;;;10.87;2.33;;;;;;;;;;5470252;26;20236;-68
2024/04/20 01:09:53;;;;;;;14.33;2.93;;;;;;;;;;5477434;26;20237;-70
2024/04/20 01:12:19;;;;;;;16.13;2.37;;;;;;;;;;5466390;26;20233;-68
2024/04/20 01:14:44;;;;;;;8.47;2.40;;;;;;;;;;5442944;26;20625;-69
2024/04/20 01:17:09;;;;;;;8.77;2.60;;;;;;;;;;5470140;26;20280;-69
2024/04/20 01:19:34;;;;;;;14.23;2.77;;;;;;;;;;5470160;26;20319;-68
2024/04/20 01:22:01;;;;;;;12.50;2.40;;;;;;;;;;5425041;26;20260;-69
2024/04/20 01:24:27;;;;;;;13.80;2.57;;;;;;;;;;5438516;26;20508;-68
2024/04/20 01:26:53;;;;;;;13.50;3.53;;;;;;;;;;5464465;26;20240;-68
2024/04/20 01:29:19;;;;;;;15.27;2.60;;;;;;;;;;5464739;26;20864;-69
2024/04/20 01:31:44;;;;;;;10.30;2.37;;;;;;;;;;5463795;26;20286;-68
2024/04/20 01:34:10;;;;;;;8.37;2.30;;;;;;;;;;5469590;26;20340;-68
2024/04/20 01:36:35;;;;;;;19.80;3.50;;;;;;;;;;5469856;26;20264;-69
2024/04/20 01:39:00;;;;;;;16.60;2.57;;;;;;;;;;5481231;26;20222;-69
2024/04/20 01:41:25;;;;;;;11.13;2.47;;;;;;;;;;5475217;26;20271;-68
2024/04/20 01:43:50;;;;;;;10.90;1.90;;;;;;;;;;5482282;26;20263;-68
2024/04/20 01:46:15;;;;;;;7.97;2.73;;;;;;;;;;5483803;26;20224;-67
2024/04/20 01:48:41;;;;;;;18.63;3.67;;;;;;;;;;5484176;26;20244;-68
2024/04/20 01:51:06;;;;;;;12.93;2.53;;;;;;;;;;5483751;26;20336;-68
2024/04/20 01:53:31;;;;;;;9.53;2.23;;;;;;;;;;5472477;26;20799;-68
2024/04/20 01:55:56;;;;;;;8.93;2.43;;;;;;;;;;5471850;26;20331;-68
2024/04/20 01:58:22;;;;;;;16.70;3.50;;;;;;;;;;5470608;26;20232;-67
2024/04/20 02:00:47;;;;;;;10.40;2.80;;;;;;;;;;5477218;26;20232;-67
2024/04/20 02:03:12;;;;;;;6.57;1.90;;;;;;;;;;5471318;26;20224;-67
2024/04/20 02:05:38;;;;;;;12.73;2.87;;;;;;;;;;5442570;26;20275;-68
2024/04/20 02:08:03;;;;;;;13.10;2.00;;;;;;;;;;5441299;26;20574;-67
2024/04/20 02:10:28;;;;;;;11.23;1.97;;;;;;;;;;5471352;26;20790;-68
2024/04/20 02:12:54;;;;;;;7.17;2.33;;;;;;;;;;5471387;26;20337;-68
2024/04/20 02:15:19;;;;;;;11.00;2.10;;;;;;;;;;5467846;26;20338;-68
2024/04/20 02:17:44;;;;;;;8.00;2.40;;;;;;;;;;5474752;26;20232;-68
2024/04/20 02:20:09;;;;;;;12.83;2.10;;;;;;;;;;5466076;26;20281;-68
2024/04/20 02:22:35;;;;;;;8.60;2.50;;;;;;;;;;5451744;26;20237;-69
2024/04/20 02:25:00;;;;;;;5.70;1.53;;;;;;;;;;5447819;26;20248;-69
2024/04/20 02:27:25;;;;;;;6.67;2.23;;;;;;;;;;5474005;26;20618;-71
2024/04/20 02:29:50;;;;;;;11.60;2.63;;;;;;;;;;5469006;26;20299;-69
2024/04/20 02:32:15;;;;;;;8.00;2.27;;;;;;;;;;5473149;26;20230;-69
2024/04/20 02:34:40;;;;;;;8.27;2.70;;;;;;;;;;5473013;26;20267;-69
2024/04/20 02:37:09;;;;;;;13.50;2.97;;;;;;;;;;5470144;26;20229;-69
2024/04/20 02:39:37;;;;;;;8.17;1.60;;;;;;;;;;5476249;26;20345;-68
2024/04/20 02:42:03;;;;;;;15.73;2.47;;;;;;;;;;5473622;26;20280;-69
2024/04/20 02:44:29;;;;;;;13.00;2.03;;;;;;;;;;5476862;26;20723;-70
2024/04/20 02:46:54;;;;;;;14.43;2.90;;;;;;;;;;5444763;26;20229;-69
2024/04/20 02:49:19;;;;;;;17.90;3.07;;;;;;;;;;5481047;26;20279;-69
2024/04/20 02:51:45;;;;;;;8.37;2.83;;;;;;;;;;5476372;26;20233;-69
2024/04/20 02:54:10;;;;;;;18.37;3.10;;;;;;;;;;5479636;26;20732;-67
2024/04/20 02:56:35;;;;;;;10.77;2.60;;;;;;;;;;5470817;26;20283;-68
2024/04/20 02:59:01;;;;;;;9.67;1.77;;;;;;;;;;5448058;26;20260;-69
2024/04/20 03:01:26;;;;;;;9.60;2.63;;;;;;;;;;5471179;26;20226;-68
2024/04/20 03:03:51;;;;;;;6.37;1.47;;;;;;;;;;5484569;26;20228;-68
2024/04/20 03:06:16;;;;;;;10.07;2.23;;;;;;;;;;5443543;26;20281;-68
2024/04/20 03:08:41;;;;;;;11.07;2.33;;;;;;;;;;5470933;26;20228;-68
2024/04/20 03:11:07;;;;;;;6.00;2.03;;;;;;;;;;5445020;26;20281;-67
2024/04/20 03:13:32;;;;;;;15.43;2.20;;;;;;;;;;5484924;26;20795;-67
2024/04/20 03:16:01;;;;;;;6.40;1.83;;;;;;;;;;5473302;26;20623;-68
2024/04/20 03:18:26;;;;;;;8.07;1.93;;;;;;;;;;5466378;26;20752;-68
2024/04/20 03:20:51;;;;;;;12.13;2.77;;;;;;;;;;5477723;26;20340;-68
2024/04/20 03:23:17;;;;;;;10.23;2.50;;;;;;;;;;5475438;26;20330;-67
2024/04/20 03:25:42;;;;;;;9.50;2.07;;;;;;;;;;5478346;26;20592;-68
2024/04/20 03:28:07;;;;;;;11.53;3.27;;;;;;;;;;5482133;26;20778;-68
2024/04/20 03:30:32;;;;;;;6.63;1.70;;;;;;;;;;5473951;26;20365;-68
2024/04/20 03:32:57;;;;;;;15.13;2.90;;;;;;;;;;5471114;26;20225;-68
2024/04/20 03:35:23;;;;;;;8.97;1.93;;;;;;;;;;5476923;26;20288;-68
2024/04/20 03:37:48;;;;;;;8.77;2.07;;;;;;;;;;5449102;26;20319;-67
2024/04/20 03:40:13;;;;;;;15.47;1.97;;;;;;;;;;5480851;26;20240;-68
2024/04/20 03:42:38;;;;;;;10.00;3.17;;;;;;;;;;5465949;26;20689;-68
2024/04/20 03:45:03;;;;;;;9.67;1.87;;;;;;;;;;5477693;26;20751;-69
2024/04/20 03:47:29;;;;;;;9.70;1.83;;;;;;;;;;5451175;26;20245;-69
2024/04/20 03:49:54;;;;;;;12.93;2.57;;;;;;;;;;5476967;26;20344;-68
2024/04/20 03:52:19;;;;;;;7.03;1.53;;;;;;;;;;5471467;26;20230;-69
2024/04/20 03:54:44;;;;;;;7.77;1.73;;;;;;;;;;5468419;26;20275;-69
2024/04/20 03:57:10;;;;;;;9.17;1.80;;;;;;;;;;5471378;26;20785;-69
2024/04/20 03:59:35;;;;;;;5.17;1.57;;;;;;;;;;5473858;26;20247;-69
2024/04/20 04:02:00;;;;;;;12.93;2.13;;;;;;;;;;5463473;26;20265;-67
2024/04/20 04:04:25;;;;;;;14.17;1.93;;;;;;;;;;5475585;26;20230;-69
2024/04/20 04:06:50;;;;;;;10.23;2.37;;;;;;;;;;5448296;26;20236;-69
2024/04/20 04:09:16;;;;;;;8.23;2.10;;;;;;;;;;5470519;26;20272;-68
2024/04/20 04:11:43;;;;;;;6.87;2.03;;;;;;;;;;5477781;26;20232;-68
2024/04/20 04:14:08;;;;;;;10.17;2.03;;;;;;;;;;5467907;26;20234;-68
2024/04/20 04:16:33;;;;;;;7.53;1.50;;;;;;;;;;5481313;26;20348;-68
2024/04/20 04:18:58;;;;;;;7.83;2.20;;;;;;;;;;5437097;26;20242;-69
2024/04/20 04:21:24;;;;;;;5.17;1.43;;;;;;;;;;5477656;26;20295;-68
2024/04/20 04:23:49;;;;;;;8.37;2.23;;;;;;;;;;5461571;26;20283;-68
2024/04/20 04:26:14;;;;;;;4.07;1.40;;;;;;;;;;5463785;26;20275;-68
2024/04/20 04:28:39;;;;;;;8.30;1.50;;;;;;;;;;5459700;26;20234;-69
2024/04/20 04:31:04;;;;;;;9.53;2.27;;;;;;;;;;5453710;26;20648;-69
2024/04/20 04:33:30;;;;;;;6.13;1.60;;;;;;;;;;5462527;26;20241;-68
2024/04/20 04:35:56;;;;;;;5.20;1.13;;;;;;;;;;5462150;26;20624;-68
2024/04/20 04:38:21;;;;;;;5.90;1.97;;;;;;;;;;5466812;26;20233;-69
2024/04/20 04:40:47;;;;;;;5.57;2.20;;;;;;;;;;5450081;26;20279;-69
2024/04/20 04:43:13;;;;;;;8.37;2.00;;;;;;;;;;5434672;26;20241;-68
2024/04/20 04:45:38;;;;;;;9.70;2.53;;;;;;;;;;5462272;26;20770;-68
2024/04/20 04:48:03;;;;;;;4.57;1.27;;;;;;;;;;5448787;26;20794;-68
2024/04/20 04:50:29;;;;;;;7.87;1.73;;;;;;;;;;5462378;26;20225;-69
2024/04/20 04:52:54;;;;;;;6.07;1.60;;;;;;;;;;5462441;26;20817;-69
2024/04/20 04:55:19;;;;;;;12.80;2.10;;;;;;;;;;5458382;26;20233;-68
2024/04/20 04:57:44;;;;;;;7.10;2.00;;;;;;;;;;5449304;26;20506;-67
2024/04/20 05:00:10;;;;;;;12.27;2.17;;;;;;;;;;5468080;26;20232;-69
2024/04/20 05:02:35;;;;;;;12.20;2.17;;;;;;;;;;5430982;26;20728;-68
2024/04/20 05:05:00;;;;;;;8.37;1.67;;;;;;;;;;5459817;26;20313;-69
2024/04/20 05:07:25;;;;;;;8.23;1.50;;;;;;;;;;5452744;26;20348;-69
2024/04/20 05:09:51;;;;;;;14.03;2.47;;;;;;;;;;5470279;26;20768;-68
2024/04/20 05:12:16;;;;;;;8.57;1.43;;;;;;;;;;5441809;26;20268;-68
2024/04/20 05:14:41;;;;;;;5.27;1.80;;;;;;;;;;5478697;26;20641;-68
2024/04/20 05:17:06;;;;;;;12.13;2.23;;;;;;;;;;5478505;26;20229;-69
2024/04/20 05:19:32;;;;;;;16.53;2.57;;;;;;;;;;5473030;26;20305;-69
2024/04/20 05:21:57;;;;;;;4.80;1.23;;;;;;;;;;5444596;26;20233;-68
2024/04/20 05:24:24;;;;;;;11.43;2.00;;;;;;;;;;5473385;26;20228;-68
2024/04/20 05:26:50;;;;;;;8.63;2.00;;;;;;;;;;5477462;26;20244;-69
2024/04/20 05:29:16;;;;;;;11.00;2.47;;;;;;;;;;5452659;26;21347;-68
2024/04/20 05:31:41;;;;;;;15.30;2.03;;;;;;;;;;5482912;26;20217;-69
2024/04/20 05:34:06;;;;;;;12.33;1.87;;;;;;;;;;5479399;26;20234;-68
2024/04/20 05:36:31;;;;;;;13.07;1.90;;;;;;;;;;5478249;26;20584;-68
2024/04/20 05:38:56;;;;;;;6.70;1.47;;;;;;;;;;5478963;26;20341;-69
2024/04/20 05:41:21;;;;;;;7.97;2.60;;;;;;;;;;5443369;26;20254;-67
2024/04/20 05:43:47;;;;;;;8.80;2.00;;;;;;;;;;5475102;26;20232;-69
2024/04/20 05:46:12;;;;;;;7.17;1.53;;;;;;;;;;5472783;26;20241;-69
2024/04/20 05:48:37;;;;;;;14.90;2.10;;;;;;;;;;5483701;26;20571;-69
2024/04/20 05:51:02;;;;;;;8.93;1.37;;;;;;;;;;5466589;26;20280;-68
2024/04/20 05:53:28;;;;;;;3.87;1.53;;;;;;;;;;5476733;26;20586;-68
2024/04/20 05:55:53;;;;;;;6.47;1.77;;;;;;;;;;5441560;26;20274;-67
2024/04/20 05:58:18;;;;;;;7.30;1.83;;;;;;;;;;5471297;26;20564;-69
2024/04/20 06:00:43;;;;;;;6.77;1.97;;;;;;;;;;5466038;26;20232;-68
2024/04/20 06:03:10;;;;;;;7.80;1.23;;;;;;;;;;5466808;26;20584;-67
2024/04/20 06:05:35;;;;;;;9.20;1.60;;;;;;;;;;5472993;26;20366;-68
2024/04/20 06:08:00;;;;;;;8.17;1.33;;;;;;;;;;5468736;26;20824;-68
2024/04/20 06:10:25;;;;;;;5.10;1.40;;;;;;;;;;5442032;26;20236;-69
2024/04/20 06:12:51;;;;;;;6.80;1.50;;;;;;;;;;5473241;26;20283;-68
2024/04/20 06:15:16;;;;;;;8.27;1.87;;;;;;;;;;5470161;26;20234;-69
2024/04/20 06:17:41;;;;;;;4.67;1.80;;;;;;;;;;5448040;26;20245;-69
2024/04/20 06:20:06;;;;;;;5.20;1.33;;;;;;;;;;5476427;26;20694;-68
2024/04/20 06:22:32;;;;;;;5.30;1.30;;;;;;;;;;5483419;26;20279;-69
2024/04/20 06:24:58;;;;;;;12.07;2.00;;;;;;;;;;5482683;26;20295;-68
2024/04/20 06:27:24;;;;;;;4.20;1.23;;;;;;;;;;5429430;26;20312;-69
2024/04/20 06:29:49;;;;;;;9.67;1.60;;;;;;;;;;5480667;26;20241;-68
2024/04/20 06:32:14;;;;;;;6.13;1.47;;;;;;;;;;5482327;26;20236;-68
2024/04/20 06:34:40;;;;;;;2.90;0.80;;;;;;;;;;5470929;26;20724;-68
2024/04/20 06:37:06;;;;;;;7.43;1.37;;;;;;;;;;5439268;26;20279;-67
2024/04/20 06:39:31;;;;;;;4.13;1.30;;;;;;;;;;5440055;26;20288;-69
2024/04/20 06:41:56;;;;;;;4.17;1.37;;;;;;;;;;5471947;26;20225;-67
2024/04/20 06:44:22;;;;;;;8.43;1.53;;;;;;;;;;5471177;26;20741;-69
2024/04/20 06:46:47;;;;;;;7.10;1.63;;;;;;;;;;5439309;26;20279;-68
2024/04/20 06:49:13;;;;;;;10.90;2.10;;;;;;;;;;5473473;26;20270;-69
2024/04/20 06:51:38;;;;;;;6.57;1.30;;;;;;;;;;5471046;26;20283;-69
2024/04/20 06:54:03;;;;;;;5.10;1.70;;;;;;;;;;5472135;26;20287;-68
2024/04/20 06:56:28;;;;;;;7.00;1.40;;;;;;;;;;5442079;26;20232;-66
2024/04/20 06:58:54;;;;;;;7.97;2.00;;;;;;;;;;5475137;26;20232;-68
2024/04/20 07:01:19;;;;;;;8.93;1.40;;;;;;;;;;5444133;26;20241;-69
2024/04/20 07:03:45;;;;;;;6.80;1.17;;;;;;;;;;5466756;26;20333;-68
2024/04/20 07:06:10;;;;;;;7.43;1.37;;;;;;;;;;5441311;26;21143;-69
2024/04/20 07:08:35;;;;;;;10.53;1.70;;;;;;;;;;5469921;26;20233;-68
2024/04/20 07:11:01;;;;;;;11.33;1.77;;;;;;;;;;5473729;26;20732;-68
2024/04/20 07:13:36;;;;;;;9.70;1.60;;;;;;;;;;5474401;26;20304;-68
2024/04/20 07:16:02;;;;;;;7.00;1.60;;;;;;;;;;5441149;26;20244;-69
2024/04/20 07:18:27;;;;;;;9.43;1.23;;;;;;;;;;5473082;26;20279;-69
2024/04/20 07:20:53;;;;;;;7.43;1.73;;;;;;;;;;5470151;26;20346;-68
2024/04/20 07:23:18;;;;;;;6.40;1.20;;;;;;;;;;5472174;26;20228;-69
2024/04/20 07:25:44;;;;;;;4.17;1.80;;;;;;;;;;5474103;26;20248;-69
2024/04/20 07:28:09;;;;;;;7.13;1.93;;;;;;;;;;5471933;26;20234;-68
2024/04/20 07:30:34;;;;;;;5.07;1.70;;;;;;;;;;5472018;26;20322;-69
2024/04/20 07:32:59;;;;;;;4.20;1.10;;;;;;;;;;5481429;26;20228;-68
2024/04/20 07:35:25;;;;;;;7.63;1.27;;;;;;;;;;5473627;26;20283;-69
2024/04/20 07:37:50;;;;;;;5.97;1.73;;;;;;;;;;5468179;26;20238;-68
2024/04/20 07:40:15;;;;;;;2.07;0.70;;;;;;;;;;5473281;26;20830;-68
2024/04/20 07:42:40;;;;;;;7.50;1.17;;;;;;;;;;5470954;26;21020;-68
2024/04/20 07:45:05;;;;;;;3.33;0.70;;;;;;;;;;5472803;26;22860;-68
2024/04/20 07:47:31;;;;;;;14.60;1.80;;;;;;;;;;5462690;26;20248;-69
2024/04/20 07:49:56;;;;;;;4.47;0.90;;;;;;;;;;5464832;26;20230;-68
2024/04/20 07:52:21;;;;;;;6.45;1.33;;;;;;;;;;5475879;26;20241;-68
2024/04/20 07:54:46;;;;;;;6.90;1.48;;;;;;;;;;5480543;26;20233;-68
2024/04/20 07:57:12;;;;;;;8.57;0.90;;;;;;;;;;5475912;26;20233;-68
2024/04/20 07:59:39;;;;;;;7.47;1.25;;;;;;;;;;5478582;26;20715;-68
2024/04/20 08:02:06;;;;;;;7.60;1.23;;;;;;;;;;5483074;26;20344;-68
2024/04/20 08:04:31;;;;;;;10.00;1.85;;;;;;;;;;5475242;26;20810;-68
2024/04/20 08:06:56;;;;;;;5.60;1.77;;;;;;;;;;5478203;26;20232;-69
2024/04/20 08:09:21;;;;;;;6.63;2.10;;;;;;;;;;5469094;26;20307;-69
2024/04/20 08:11:47;;;;;;;3.03;0.95;;;;;;;;;;5449910;26;20263;-69
2024/04/20 08:14:13;;;;;;;8.75;1.20;;;;;;;;;;5483245;26;20229;-69
2024/04/20 08:16:38;;;;;;;6.97;1.58;;;;;;;;;;5448814;26;20267;-67
2024/04/20 08:19:03;;;;;;;7.63;1.75;;;;;;;;;;5473267;26;20249;-69
2024/04/20 08:21:29;;;;;;;11.77;2.38;;;;;;;;;;5463168;26;20346;-68
2024/04/20 08:23:54;;;;;;;11.45;1.95;;;;;;;;;;5450965;26;20745;-68
2024/04/20 08:26:19;;;;;;;6.22;1.35;;;;;;;;;;5450164;26;20230;-67
2024/04/20 08:28:44;;;;;;;4.28;1.80;;;;;;;;;;5418109;26;20264;-68
2024/04/20 08:31:09;;;;;;;5.85;1.55;;;;;;;;;;5446199;26;20294;-67
2024/04/20 08:33:34;;;;;;;7.43;1.48;;;;;;;;;;5450869;26;20690;-68
2024/04/20 08:36:00;;;;;;;6.97;1.48;;;;;;;;;;5453313;26;20306;-68
2024/04/20 08:38:25;;;;;;;5.57;1.35;;;;;;;;;;5418640;26;20271;-68
2024/04/20 08:40:54;;;;;;;6.65;2.05;;;;;;;;;;5424431;26;20244;-68
2024/04/20 08:43:20;;;;;;;5.57;1.55;;;;;;;;;;5451934;26;20238;-66
2024/04/20 08:45:46;;;;;;;4.75;1.65;;;;;;;;;;5452179;26;20267;-68
2024/04/20 08:48:12;;;;;;;5.55;1.52;;;;;;;;;;5454004;26;20606;-67
2024/04/20 08:50:38;;;;;;;4.60;1.40;;;;;;;;;;5447842;26;20244;-67
2024/04/20 08:53:04;;;;;;;4.80;1.02;;;;;;;;;;5452418;26;20328;-68
2024/04/20 08:55:32;;;;;;;3.90;1.05;;;;;;;;;;5451474;26;20268;-68
2024/04/20 08:57:58;;;;;;;7.22;1.33;;;;;;;;;;5450063;26;20251;-70
2024/04/20 09:00:25;;;;;;;9.52;1.65;;;;;;;;;;5452477;26;20232;-67
2024/04/20 09:02:50;;;;;;;5.25;1.52;;;;;;;;;;5452806;26;20861;-66
2024/04/20 09:05:15;;;;;;;9.45;1.50;;;;;;;;;;5448942;26;20271;-68
2024/04/20 09:07:41;;;;;;;11.25;1.40;;;;;;;;;;5451539;26;21218;-68
2024/04/20 09:10:06;;;;;;;8.27;2.13;;;;;;;;;;5454927;26;20229;-67
2024/04/20 09:12:31;;;;;;;4.97;1.75;;;;;;;;;;5452098;26;20620;-67
2024/04/20 09:15:00;;;;;;;4.00;1.02;;;;;;;;;;5421410;26;20244;-67
2024/04/20 09:17:25;;;;;;;2.45;0.93;;;;;;;;;;5456284;26;20236;-69
2024/04/20 09:19:51;;;;;;;7.18;1.52;;;;;;;;;;5454186;26;20344;-68
2024/04/20 09:22:17;;;;;;;3.55;1.50;;;;;;;;;;5453981;26;20696;-68
2024/04/20 09:24:42;;;;;;;4.32;1.52;;;;;;;;;;5454579;26;20275;-70
2024/04/20 09:27:13;;;;;;;3.83;1.00;;;;;;;;;;5476214;21;20298;-70
2024/04/20 09:29:40;;;;;;;4.85;1.38;;;;;;;;;;5454339;26;21374;-69
2024/04/20 09:32:08;;;;;;;3.90;1.23;;;;;;;;;;5453957;26;20287;-68
2024/04/20 09:34:33;;;;;;;6.13;1.27;;;;;;;;;;5452342;26;20611;-69
2024/04/20 09:36:58;;;;;;;9.45;1.45;;;;;;;;;;5452485;26;20237;-69
2024/04/20 09:39:24;;;;;;;8.18;1.52;;;;;;;;;;5455400;26;20509;-69
2024/04/20 09:41:50;;;;;;;5.95;1.38;;;;;;;;;;5414496;26;20275;-67
2024/04/20 09:44:16;;;;;;;7.07;1.55;;;;;;;;;;5453912;26;20233;-69
2024/04/20 09:46:46;;;;;;;4.80;1.40;;;;;;;;;;5454501;26;20236;-69
2024/04/20 09:49:12;;;;;;;3.63;1.52;;;;;;;;;;5456151;26;20225;-69
2024/04/20 09:51:41;;;;;;;4.05;1.25;;;;;;;;;;5454675;26;20798;-69
2024/04/20 09:54:12;;;;;;;2.03;0.82;;;;;;;;;;5422388;26;20338;-69
2024/04/20 09:56:37;;;;;;;4.90;1.20;;;;;;;;;;5451884;26;21354;-68
2024/04/20 09:59:03;;;;;;;4.53;1.20;;;;;;;;;;5452756;26;20549;-70
2024/04/20 10:01:28;;;;;;;3.85;1.25;;;;;;;;;;5417421;26;20639;-69
2024/04/20 10:03:54;;;;;;;2.22;0.93;;;;;;;;;;5457800;26;20233;-68
2024/04/20 10:06:20;;;;;;;4.30;0.90;;;;;;;;;;5456851;26;20286;-70
2024/04/20 10:08:46;;;;;;;5.15;1.02;;;;;;;;;;5456803;26;20267;-69
2024/04/20 10:11:12;;;;;;;3.00;0.73;;;;;;;;;;5456588;26;22270;-68
2024/04/20 10:13:37;;;;;;;4.00;1.00;;;;;;;;;;5459711;26;20341;-70
2024/04/20 10:16:03;;;;;;;3.47;0.80;;;;;;;;;;5456023;26;20291;-69
2024/04/20 10:18:28;;;;;;;3.83;0.75;;;;;;;;;;5460749;26;20858;-70
2024/04/20 10:21:00;;;;;;;4.55;0.95;;;;;;;;;;5423714;26;20334;-69
2024/04/20 10:23:26;;;;;;;2.45;0.80;;;;;;;;;;5456478;26;21008;-70
2024/04/20 10:25:55;;;;;;;4.18;1.20;;;;;;;;;;5458354;26;20233;-68
2024/04/20 10:28:30;;;;;;;3.38;1.10;;;;;;;;;;5417617;26;20601;-68
2024/04/20 10:30:59;;;;;;;5.47;1.08;;;;;;;;;;5461015;26;20232;-68
2024/04/20 10:33:30;;;;;;;4.88;1.10;;;;;;;;;;5457940;26;20603;-69
2024/04/20 10:35:59;;;;;;;3.25;0.90;;;;;;;;;;5415541;26;20244;-70
2024/04/20 10:38:25;;;;;;;6.43;1.05;;;;;;;;;;5423682;26;21129;-69
2024/04/20 10:40:50;;;;;;;10.52;1.83;;;;;;;;;;5452776;26;20368;-67
2024/04/20 10:43:19;;;;;;;6.97;1.45;;;;;;;;;;5453235;26;20586;-69
2024/04/20 10:45:45;;;;;;;4.88;1.10;;;;;;;;;;5453628;26;20241;-67
2024/04/20 10:48:14;;;;;;;3.45;0.98;;;;;;;;;;5456723;26;20554;-69
2024/04/20 10:50:43;;;;;;;5.18;1.33;;;;;;;;;;5456785;26;20283;-70
2024/04/20 10:53:08;;;;;;;6.40;1.30;;;;;;;;;;5455959;26;20252;-70
2024/04/20 10:55:34;;;;;;;8.75;1.88;;;;;;;;;;5462671;26;20365;-70
2024/04/20 10:57:59;;;;;;;6.85;1.92;;;;;;;;;;5464474;26;20252;-69
2024/04/20 11:00:24;;;;;;;5.53;1.23;;;;;;;;;;5475603;26;20368;-68
2024/04/20 11:02:53;;;;;;;6.38;1.42;;;;;;;;;;5459240;26;20228;-67
2024/04/20 11:05:18;;;;;;;4.05;1.33;;;;;;;;;;5455414;26;20284;-68
2024/04/20 11:07:43;;;;;;;5.90;1.25;;;;;;;;;;5454823;26;20276;-69
2024/04/20 11:10:18;;;;;;;3.60;1.48;;;;;;;;;;5465704;26;20230;-68
2024/04/20 11:12:43;;;;;;;4.95;1.55;;;;;;;;;;5464852;26;20224;-69
2024/04/20 11:15:08;;;;;;;3.75;0.93;;;;;;;;;;5412856;26;20841;-70
2024/04/20 11:17:34;;;;;;;4.88;1.20;;;;;;;;;;5459312;26;20291;-67
2024/04/20 11:20:00;;;;;;;4.13;1.35;;;;;;;;;;5454815;26;20238;-67
2024/04/20 11:22:25;;;;;;;6.75;1.25;;;;;;;;;;5454752;26;20254;-68
2024/04/20 11:24:50;;;;;;;6.13;1.73;;;;;;;;;;5427589;26;20233;-68
2024/04/20 11:27:16;;;;;;;5.28;1.35;;;;;;;;;;5454272;26;20750;-70
2024/04/20 11:29:42;;;;;;;7.75;1.60;;;;;;;;;;5456026;26;20288;-71
2024/04/20 11:32:07;;;;;;;7.60;1.75;;;;;;;;;;5456805;26;20244;-71
2024/04/20 11:34:32;;;;;;;4.25;1.25;;;;;;;;;;5457027;26;20277;-70
2024/04/20 11:36:59;;;;;;;7.05;1.50;;;;;;;;;;5464101;26;20732;-71
2024/04/20 11:39:25;;;;;;;11.45;1.77;;;;;;;;;;5458448;26;20245;-70
2024/04/20 11:41:50;;;;;;;7.18;1.70;;;;;;;;;;5456768;26;20280;-70
2024/04/20 11:44:18;;;;;;;11.68;1.38;;;;;;;;;;5453668;26;20283;-70
2024/04/20 11:46:43;;;;;;;8.15;1.88;;;;;;;;;;5458556;26;20569;-70
2024/04/20 11:49:10;;;;;;;5.88;1.60;;;;;;;;;;5454548;26;20245;-70
2024/04/20 11:54:20;;;;;;;4.63;1.58;;;;;;;;;;5455298;26;20286;-70
2024/04/20 11:56:45;;;;;;;7.03;1.20;;;;;;;;;;5452998;26;20849;-70
2024/04/20 11:59:11;;;;;;;6.07;1.25;;;;;;;;;;5454415;26;20268;-71
2024/04/20 12:01:36;;;;;;;5.88;0.98;;;;;;;;;;5463960;26;20236;-71
2024/04/20 12:04:03;;;;;;;9.55;1.10;;;;;;;;;;5427020;26;20286;-70
2024/04/20 12:06:28;;;;;;;7.25;1.50;;;;;;;;;;5454038;26;22553;-70
2024/04/20 12:08:53;;;;;;;5.40;1.42;;;;;;;;;;5456130;26;20228;-69
2024/04/20 12:11:19;;;;;;;4.70;1.38;;;;;;;;;;5457174;26;20283;-70
2024/04/20 12:13:45;;;;;;;4.88;0.90;;;;;;;;;;5455825;26;20344;-70
2024/04/20 12:16:12;;;;;;;6.30;1.17;;;;;;;;;;5456793;26;20233;-70
2024/04/20 12:18:37;;;;;;;6.35;1.70;;;;;;;;;;5457059;26;20727;-70
2024/04/20 12:21:02;;;;;;;7.22;1.25;;;;;;;;;;5455457;26;20236;-69
2024/04/20 12:23:28;;;;;;;4.97;1.50;;;;;;;;;;5453103;26;20267;-67
2024/04/20 12:25:53;;;;;;;3.58;1.35;;;;;;;;;;5454393;26;20300;-68
2024/04/20 12:28:18;;;;;;;4.57;1.35;;;;;;;;;;5456484;26;20354;-68
2024/04/20 12:30:44;;;;;;;5.28;1.45;;;;;;;;;;5452852;26;20253;-68
2024/04/20 12:33:10;;;;;;;10.65;1.70;;;;;;;;;;5454279;26;20632;-68
2024/04/20 12:35:35;;;;;;;5.35;1.60;;;;;;;;;;5454789;26;20344;-69
2024/04/20 12:38:01;;;;;;;5.55;1.00;;;;;;;;;;5453239;26;20245;-68
2024/04/20 12:40:26;;;;;;;2.53;1.00;;;;;;;;;;5453696;26;20290;-70
2024/04/20 12:42:51;;;;;;;3.90;1.23;;;;;;;;;;5454045;26;20232;-69
2024/04/20 12:45:17;;;;;;;14.15;2.40;;;;;;;;;;5456217;26;20379;-69
2024/04/20 12:47:46;;;;;;;10.50;1.38;;;;;;;;;;5425081;26;20267;-68
2024/04/20 12:50:11;;;;;;;7.20;1.05;;;;;;;;;;5457028;26;20936;-70
2024/04/20 12:52:37;;;;;;;4.15;0.93;;;;;;;;;;5455288;26;20284;-70
2024/04/20 12:55:03;;;;;;;8.57;1.55;;;;;;;;;;5422555;26;20724;-69
2024/04/20 12:57:29;;;;;;;2.85;0.90;;;;;;;;;;5454103;26;20283;-69
2024/04/20 12:59:54;;;;;;;3.83;1.13;;;;;;;;;;5457031;26;20237;-69
2024/04/20 13:02:19;;;;;;;6.93;1.63;;;;;;;;;;5455627;26;20248;-69
2024/04/20 13:04:45;;;;;;;6.50;1.60;;;;;;;;;;5453447;26;20237;-67
2024/04/20 13:07:10;;;;;;;10.73;1.15;;;;;;;;;;5453040;26;21282;-68
2024/04/20 13:09:36;;;;;;;2.70;0.90;;;;;;;;;;5460295;26;20244;-71
2024/04/20 13:12:01;;;;;;;2.70;0.97;;;;;;;;;;5454608;26;20355;-68
2024/04/20 13:14:26;;;;;;;3.97;1.77;;;;;;;;;;5456622;26;20233;-69
2024/04/20 13:16:52;;;;;;;2.90;1.20;;;;;;;;;;5458411;26;20241;-69
2024/04/20 13:19:19;;;;;;;9.47;1.20;;;;;;;;;;5423448;26;20284;-69
2024/04/20 13:21:45;;;;;;;6.33;1.67;;;;;;;;;;5452548;26;20588;-69
2024/04/20 13:24:10;;;;;;;2.70;0.93;;;;;;;;;;5456958;26;20244;-69
2024/04/20 13:26:35;;;;;;;7.63;0.93;;;;;;;;;;5455328;26;20300;-69
2024/04/20 13:29:01;;;;;;;3.60;1.33;;;;;;;;;;5454298;26;20924;-68
2024/04/20 13:31:26;;;;;;;4.65;1.30;;;;;;;;;;5419979;26;20233;-68
2024/04/20 13:33:54;;;;;;;4.38;1.23;;;;;;;;;;5453102;26;20240;-69
2024/04/20 13:36:19;;;;;;;7.68;1.20;;;;;;;;;;5424287;26;20236;-67
2024/04/20 13:38:44;;;;;;;4.50;0.75;;;;;;;;;;5460285;26;20229;-69
2024/04/20 13:41:10;;;;;;;1.75;0.68;;;;;;;;;;5455602;26;20476;-69
2024/04/20 13:43:35;;;;;;;2.30;0.70;;;;;;;;;;5430597;26;20248;-68
2024/04/20 13:46:04;;;;;;;2.92;1.77;;;;;;;;;;5426080;26;20257;-69
2024/04/20 13:48:30;;;;;;;2.97;0.88;;;;;;;;;;5459063;26;20598;-69
2024/04/20 13:50:55;;;;;;;4.43;1.35;;;;;;;;;;5460560;26;20240;-69
2024/04/20 13:53:20;;;;;;;2.30;1.00;;;;;;;;;;5461309;26;20333;-70
2024/04/20 13:55:52;;;;;;;6.10;1.10;;;;;;;;;;5425127;26;20644;-70
2024/04/20 13:58:17;;;;;;;3.88;1.17;;;;;;;;;;5456153;26;20260;-70
2024/04/20 14:00:42;;;;;;;2.22;1.10;;;;;;;;;;5458033;26;20236;-69
2024/04/20 14:03:07;;;;;;;8.38;1.50;;;;;;;;;;5457937;26;20233;-70
2024/04/20 14:05:33;;;;;;;1.63;0.77;;;;;;;;;;5454639;26;20229;-70
2024/04/20 14:07:58;;;;;;;6.43;1.55;;;;;;;;;;5456038;26;20708;-69
2024/04/20 14:10:23;;;;;;;4.18;1.38;;;;;;;;;;5455707;26;20225;-70
2024/04/20 14:12:49;;;;;;;5.32;0.90;;;;;;;;;;5457057;26;20232;-71
2024/04/20 14:15:14;;;;;;;4.43;1.33;;;;;;;;;;5453698;26;20248;-70
2024/04/20 14:17:39;;;;;;;2.05;1.08;;;;;;;;;;5461430;26;20244;-71
2024/04/20 14:20:07;;;;;;;2.17;0.80;;;;;;;;;;5411442;26;20237;-69
2024/04/20 14:22:32;;;;;;;2.72;1.13;;;;;;;;;;5456241;26;20603;-70
2024/04/20 14:24:57;;;;;;;2.38;0.70;;;;;;;;;;5429510;26;20244;-70
2024/04/20 14:27:22;;;;;;;2.45;0.57;;;;;;;;;;5454092;26;20290;-67
2024/04/20 14:29:48;;;;;;;0.95;0.50;;;;;;;;;;5456336;26;20233;-69
2024/04/20 14:32:13;;;;;;;1.67;0.68;;;;;;;;;;5421251;26;20232;-69
2024/04/20 14:34:38;;;;;;;0.85;0.73;;;;;;;;;;5455132;26;20399;-70